createdAt,value
2022-11-17T00:00:29.290Z,5.80
2022-11-17T00:03:04.170Z,6.35
2022-11-17T00:05:31.412Z,5.88
2022-11-17T00:07:58.321Z,5.70
2022-11-17T00:10:25.515Z,5.45
2022-11-17T00:13:11.275Z,5.22
2022-11-17T00:15:41.919Z,5.68
2022-11-17T00:18:27.447Z,5.80
2022-11-17T00:21:13.581Z,5.70
2022-11-17T00:23:50.368Z,5.70
2022-11-17T00:26:23.206Z,5.38
2022-11-17T00:28:54.600Z,5.15
2022-11-17T00:31:40.883Z,5.32
2022-11-17T00:34:11.039Z,6.20
2022-11-17T00:36:46.360Z,5.45
2022-11-17T00:39:14.545Z,5.30
2022-11-17T00:41:41.789Z,5.35
2022-11-17T00:44:09.265Z,4.85
2022-11-17T00:46:37.367Z,4.75
2022-11-17T00:49:06.015Z,5.47
2022-11-17T00:51:33.749Z,5.72
2022-11-17T00:54:00.905Z,6.13
2022-11-17T00:56:28.249Z,5.78
2022-11-17T00:58:55.302Z,5.65
2022-11-17T01:01:23.090Z,5.03
2022-11-17T01:03:50.608Z,4.88
2022-11-17T01:06:20.037Z,6.07
2022-11-17T01:08:47.359Z,5.85
2022-11-17T01:11:17.363Z,5.95
2022-11-17T01:13:46.782Z,4.78
2022-11-17T01:16:19.094Z,5.40
2022-11-17T01:18:47.893Z,4.82
2022-11-17T01:21:19.971Z,6.25
2022-11-17T01:23:48.352Z,4.45
2022-11-17T01:26:19.881Z,5.40
2022-11-17T01:28:47.898Z,5.68
2022-11-17T01:31:18.743Z,5.55
2022-11-17T01:33:46.701Z,5.55
2022-11-17T01:36:16.763Z,4.45
2022-11-17T01:38:44.679Z,4.82
2022-11-17T01:41:17.546Z,5.35
2022-11-17T01:43:52.153Z,4.78
2022-11-17T01:46:25.228Z,4.85
2022-11-17T01:48:54.505Z,4.80
2022-11-17T01:51:22.838Z,4.97
2022-11-17T01:53:51.342Z,5.30
2022-11-17T01:56:24.684Z,4.78
2022-11-17T02:01:22.285Z,4.57
2022-11-17T02:03:51.647Z,4.45
2022-11-17T02:06:34.159Z,5.47
2022-11-17T02:09:03.823Z,5.07
2022-11-17T02:11:36.215Z,5.43
2022-11-17T02:14:05.303Z,5.60
2022-11-17T02:16:32.510Z,4.55
2022-11-17T02:18:59.511Z,5.28
2022-11-17T02:22:06.491Z,5.43
2022-11-17T02:25:00.412Z,5.05
2022-11-17T02:27:54.748Z,4.35
2022-11-17T02:30:23.487Z,4.93
2022-11-17T02:33:02.536Z,4.63
2022-11-17T02:35:51.110Z,5.15
2022-11-17T02:38:31.481Z,4.50
2022-11-17T02:41:11.251Z,5.20
2022-11-17T02:44:03.880Z,4.97
2022-11-17T02:46:58.012Z,4.30
2022-11-17T02:49:49.521Z,4.18
2022-11-17T02:52:18.052Z,4.38
2022-11-17T02:54:45.194Z,5.30
2022-11-17T02:57:35.387Z,4.00
2022-11-17T03:00:12.065Z,4.45
2022-11-17T03:02:38.891Z,3.58
2022-11-17T03:05:30.024Z,5.20
2022-11-17T03:08:32.781Z,3.90
2022-11-17T03:11:07.012Z,4.38
2022-11-17T03:13:44.292Z,4.00
2022-11-17T03:16:34.779Z,4.22
2022-11-17T03:19:39.117Z,3.88
2022-11-17T03:22:36.172Z,4.30
2022-11-17T03:25:06.830Z,4.55
2022-11-17T03:27:40.348Z,3.78
2022-11-17T03:30:09.615Z,3.65
2022-11-17T03:32:39.309Z,4.60
2022-11-17T03:35:12.884Z,3.97
2022-11-17T03:37:44.867Z,4.28
2022-11-17T03:40:14.528Z,3.78
2022-11-17T03:42:46.273Z,3.75
2022-11-17T03:45:18.789Z,4.10
2022-11-17T03:47:46.732Z,4.22
2022-11-17T03:50:36.085Z,3.58
2022-11-17T03:53:05.052Z,3.72
2022-11-17T03:55:51.545Z,3.88
2022-11-17T03:58:22.296Z,4.00
2022-11-17T04:00:52.597Z,2.75
2022-11-17T04:03:22.885Z,3.17
2022-11-17T04:05:49.767Z,2.03
2022-11-17T04:08:16.950Z,2.22
2022-11-17T04:11:02.615Z,1.98
2022-11-17T04:13:48.797Z,2.33
2022-11-17T04:16:15.624Z,1.88
2022-11-17T04:18:42.741Z,2.28
2022-11-17T04:21:09.610Z,2.38
2022-11-17T04:23:37.088Z,2.90
2022-11-17T04:26:22.826Z,2.95
2022-11-17T04:28:50.641Z,2.95
2022-11-17T04:31:23.022Z,2.53
2022-11-17T04:33:55.779Z,2.13
2022-11-17T04:36:25.421Z,3.58
2022-11-17T04:38:55.245Z,3.20
2022-11-17T04:41:42.594Z,3.85
2022-11-17T04:44:11.898Z,3.20
2022-11-17T04:46:40.232Z,3.72
2022-11-17T04:49:08.449Z,3.78
2022-11-17T04:51:36.611Z,5.88
2022-11-17T04:54:05.601Z,4.60
2022-11-17T04:56:32.985Z,4.38
2022-11-17T04:59:00.173Z,4.63
2022-11-17T05:01:28.081Z,3.95
2022-11-17T05:04:11.600Z,4.45
2022-11-17T05:06:41.099Z,4.47
2022-11-17T05:09:13.766Z,5.03
2022-11-17T05:12:00.688Z,4.57
2022-11-17T05:14:29.149Z,4.53
2022-11-17T05:17:09.564Z,4.07
2022-11-17T05:19:49.308Z,4.32
2022-11-17T05:22:37.997Z,2.95
2022-11-17T05:25:06.155Z,2.40
2022-11-17T05:27:34.065Z,2.72
2022-11-17T05:30:02.435Z,2.80
2022-11-17T05:32:29.292Z,2.97
2022-11-17T05:34:56.524Z,2.35
2022-11-17T05:37:23.396Z,3.08
2022-11-17T05:39:50.553Z,2.03
2022-11-17T05:42:17.555Z,1.92
2022-11-17T05:44:44.803Z,2.92
2022-11-17T05:47:11.677Z,2.40
2022-11-17T05:49:38.799Z,2.42
2022-11-17T05:52:05.764Z,1.88
2022-11-17T05:54:32.895Z,2.15
2022-11-17T05:57:06.799Z,2.38
2022-11-17T05:59:41.606Z,2.33
2022-11-17T06:02:26.112Z,2.63
2022-11-17T06:04:53.432Z,1.83
2022-11-17T06:07:21.207Z,2.47
2022-11-17T06:09:48.299Z,1.92
2022-11-17T06:12:15.780Z,1.80
2022-11-17T06:14:42.777Z,2.28
2022-11-17T06:17:31.244Z,2.75
2022-11-17T06:20:03.796Z,2.33
2022-11-17T06:22:31.458Z,1.73
2022-11-17T06:24:59.421Z,2.10
2022-11-17T06:27:27.042Z,1.70
2022-11-17T06:29:55.625Z,1.63
2022-11-17T06:32:23.259Z,1.90
2022-11-17T06:34:55.651Z,2.30
2022-11-17T06:37:24.559Z,1.98
2022-11-17T06:39:51.672Z,1.27
2022-11-17T06:42:18.942Z,2.33
2022-11-17T06:44:45.847Z,1.88
2022-11-17T06:47:13.143Z,1.95
2022-11-17T06:49:40.082Z,1.90
2022-11-17T06:52:07.230Z,2.20
2022-11-17T06:54:34.150Z,1.92
2022-11-17T06:57:01.332Z,2.10
2022-11-17T06:59:28.364Z,2.30
2022-11-17T07:01:55.588Z,1.88
2022-11-17T07:04:22.493Z,1.58
2022-11-17T07:06:49.952Z,1.92
2022-11-17T07:09:16.906Z,1.40
2022-11-17T07:11:44.092Z,1.95
2022-11-17T07:14:11.010Z,1.65
2022-11-17T07:16:38.210Z,1.67
2022-11-17T07:19:09.784Z,1.45
2022-11-17T07:21:37.386Z,2.45
2022-11-17T07:24:04.492Z,2.30
2022-11-17T07:26:31.668Z,1.52
2022-11-17T07:28:58.580Z,1.70
2022-11-17T07:31:25.876Z,1.73
2022-11-17T07:33:53.883Z,1.38
2022-11-17T07:36:21.221Z,1.65
2022-11-17T07:38:48.140Z,1.50
2022-11-17T07:41:15.428Z,1.50
2022-11-17T07:43:42.464Z,1.80
2022-11-17T07:46:13.476Z,1.35
2022-11-17T07:48:41.621Z,1.38
2022-11-17T07:51:09.251Z,1.23
2022-11-17T07:53:36.259Z,1.05
2022-11-17T07:56:09.147Z,1.00
2022-11-17T07:58:36.992Z,1.50
2022-11-17T08:01:05.858Z,1.52
2022-11-17T08:03:32.904Z,1.48
2022-11-17T08:06:05.378Z,2.08
2022-11-17T08:08:33.246Z,1.30
2022-11-17T08:11:06.166Z,1.90
2022-11-17T08:13:33.520Z,1.67
2022-11-17T08:16:01.504Z,1.42
2022-11-17T08:18:29.346Z,1.90
2022-11-17T08:21:16.273Z,1.67
2022-11-17T08:23:43.309Z,1.88
2022-11-17T08:26:11.533Z,1.50
2022-11-17T08:28:39.117Z,1.70
2022-11-17T08:31:07.844Z,1.77
2022-11-17T08:33:35.034Z,1.70
2022-11-17T08:36:04.123Z,1.60
2022-11-17T08:38:31.353Z,2.00
2022-11-17T08:41:01.781Z,2.20
2022-11-17T08:43:29.002Z,1.42
2022-11-17T08:45:56.188Z,1.95
2022-11-17T08:48:23.502Z,2.22
2022-11-17T08:50:51.267Z,1.75
2022-11-17T08:53:20.742Z,1.70
2022-11-17T08:55:48.177Z,1.45
2022-11-17T08:58:15.675Z,1.70
2022-11-17T09:00:43.137Z,1.73
2022-11-17T09:03:11.112Z,1.55
2022-11-17T09:05:40.394Z,1.25
2022-11-17T09:08:38.006Z,1.63
2022-11-17T09:10:55.829Z,1.58
2022-11-17T09:13:22.734Z,1.88
2022-11-17T09:15:49.893Z,1.50
2022-11-17T09:18:17.176Z,1.60
2022-11-17T09:20:45.917Z,1.25
2022-11-17T09:23:13.219Z,1.83
2022-11-17T09:25:40.386Z,1.63
2022-11-17T09:28:07.276Z,2.42
2022-11-17T09:30:34.761Z,1.65
2022-11-17T09:33:01.682Z,1.80
2022-11-17T09:35:28.910Z,1.92
2022-11-17T09:38:00.825Z,1.63
2022-11-17T09:40:33.167Z,1.57
2022-11-17T09:43:14.701Z,2.05
2022-11-17T09:45:46.185Z,1.75
2022-11-17T09:48:45.341Z,2.00
2022-11-17T09:51:16.853Z,1.85
2022-11-17T09:53:50.919Z,1.42
2022-11-17T09:56:18.136Z,2.05
2022-11-17T09:59:01.748Z,2.08
2022-11-17T10:01:29.248Z,1.73
2022-11-17T10:03:59.212Z,2.30
2022-11-17T10:06:30.391Z,1.73
2022-11-17T10:09:16.983Z,1.88
2022-11-17T10:11:47.442Z,1.80
2022-11-17T10:14:22.302Z,2.25
2022-11-17T10:16:58.291Z,2.42
2022-11-17T10:19:28.146Z,1.83
2022-11-17T10:22:23.239Z,2.63
2022-11-17T10:24:55.392Z,2.83
2022-11-17T10:27:27.145Z,2.35
2022-11-17T10:30:28.541Z,2.67
2022-11-17T10:32:58.224Z,2.38
2022-11-17T10:35:36.513Z,2.35
2022-11-17T10:38:23.163Z,2.30
2022-11-17T10:40:52.210Z,2.95
2022-11-17T10:43:57.539Z,1.98
2022-11-17T10:46:24.597Z,2.33
2022-11-17T10:48:57.969Z,2.35
2022-11-17T10:54:16.406Z,2.65
2022-11-17T10:56:46.962Z,2.13
2022-11-17T10:59:23.291Z,2.03
2022-11-17T11:01:51.430Z,2.13
2022-11-17T11:04:41.879Z,2.28
2022-11-17T11:07:20.256Z,1.98
2022-11-17T11:10:04.106Z,2.20
2022-11-17T11:12:46.252Z,1.98
2022-11-17T11:15:36.259Z,1.83
2022-11-17T11:18:13.138Z,1.73
2022-11-17T11:20:47.682Z,2.72
2022-11-17T11:23:41.172Z,1.77
2022-11-17T11:29:09.448Z,2.20
2022-11-17T11:32:01.901Z,2.10
2022-11-17T11:34:47.234Z,2.05
2022-11-17T11:37:16.234Z,1.90
2022-11-17T11:40:03.600Z,1.50
2022-11-17T11:42:47.345Z,2.03
2022-11-17T11:45:41.977Z,1.40
2022-11-17T11:48:31.757Z,1.80
2022-11-17T11:50:59.530Z,2.83
2022-11-17T11:53:47.648Z,2.83
2022-11-17T11:56:16.022Z,1.80
2022-11-17T11:59:48.285Z,2.60
2022-11-17T12:02:24.636Z,2.63
2022-11-17T12:05:04.036Z,4.28
2022-11-17T12:07:52.550Z,3.45
2022-11-17T12:10:42.949Z,2.55
2022-11-17T12:13:15.950Z,2.85
2022-11-17T12:15:43.307Z,2.70
2022-11-17T12:18:23.519Z,2.75
2022-11-17T12:21:01.167Z,2.55
2022-11-17T12:23:46.214Z,2.88
2022-11-17T12:26:28.608Z,2.47
2022-11-17T12:29:20.520Z,3.15
2022-11-17T12:31:47.648Z,3.25
2022-11-17T12:34:30.706Z,2.70
2022-11-17T12:37:06.010Z,3.17
2022-11-17T12:39:59.372Z,2.97
2022-11-17T12:42:34.375Z,3.17
2022-11-17T12:45:06.427Z,2.60
2022-11-17T12:47:36.655Z,2.58
2022-11-17T12:50:15.997Z,3.05
2022-11-17T12:53:05.390Z,2.58
2022-11-17T12:55:35.234Z,2.67
2022-11-17T12:58:30.101Z,3.30
2022-11-17T13:01:10.961Z,3.78
2022-11-17T13:03:41.475Z,3.38
2022-11-17T13:09:10.586Z,3.63
2022-11-17T13:11:37.550Z,3.70
2022-11-17T13:14:10.823Z,3.42
2022-11-17T13:16:47.316Z,4.20
2022-11-17T13:19:31.593Z,4.57
2022-11-17T13:22:18.835Z,4.10
2022-11-17T13:24:49.147Z,4.55
2022-11-17T13:27:29.282Z,4.65
2022-11-17T13:30:21.507Z,5.70
2022-11-17T13:32:48.905Z,4.65
2022-11-17T13:35:26.192Z,4.78
2022-11-17T13:38:12.315Z,4.18
2022-11-17T13:40:41.186Z,4.93
2022-11-17T13:43:17.270Z,5.15
2022-11-17T13:45:45.877Z,4.63
2022-11-17T13:48:37.407Z,4.80
2022-11-17T13:51:20.175Z,4.72
2022-11-17T13:53:57.545Z,5.87
2022-11-17T13:56:46.874Z,5.90
2022-11-17T13:59:26.559Z,4.95
2022-11-17T14:02:21.323Z,5.95
2022-11-17T14:05:07.621Z,4.78
2022-11-17T14:07:37.563Z,4.55
2022-11-17T14:10:23.024Z,4.75
2022-11-17T14:12:54.390Z,4.65
2022-11-17T14:15:21.269Z,5.22
2022-11-17T14:17:51.006Z,4.80
2022-11-17T14:20:23.896Z,3.58
2022-11-17T14:25:43.393Z,4.03
2022-11-17T14:28:15.253Z,4.53
2022-11-17T14:30:42.815Z,4.40
2022-11-17T14:33:13.646Z,3.60
2022-11-17T14:35:41.611Z,4.60
2022-11-17T14:38:17.424Z,5.63
2022-11-17T14:40:44.475Z,4.95
2022-11-17T14:43:11.969Z,5.07
2022-11-17T14:45:38.964Z,5.28
2022-11-17T14:48:06.336Z,5.43
2022-11-17T14:50:33.868Z,4.78
2022-11-17T14:53:01.309Z,5.50
2022-11-17T14:55:28.158Z,7.20
2022-11-17T14:57:55.548Z,6.65
2022-11-17T15:00:22.574Z,8.13
2022-11-17T15:02:51.375Z,7.53
2022-11-17T15:05:18.267Z,6.50
2022-11-17T15:07:45.695Z,7.28
2022-11-17T15:10:12.793Z,7.03
2022-11-17T15:12:40.281Z,5.95
2022-11-17T15:15:07.632Z,5.65
2022-11-17T15:17:34.775Z,5.10
2022-11-17T15:20:01.854Z,4.97
2022-11-17T15:22:29.073Z,6.85
2022-11-17T15:24:55.967Z,6.07
2022-11-17T15:27:23.806Z,6.18
2022-11-17T15:29:50.727Z,8.57
2022-11-17T15:32:17.896Z,5.85
2022-11-17T15:34:44.890Z,6.38
2022-11-17T15:37:12.242Z,6.68
2022-11-17T15:39:39.178Z,8.00
2022-11-17T15:42:06.354Z,6.55
2022-11-17T15:44:33.374Z,10.50
2022-11-17T15:47:01.633Z,9.70
2022-11-17T15:49:28.575Z,16.48
2022-11-17T15:51:56.005Z,10.02
2022-11-17T15:54:23.455Z,10.10
2022-11-17T15:56:51.817Z,10.77
2022-11-17T15:59:19.219Z,10.02
2022-11-17T16:01:47.042Z,12.10
2022-11-17T16:04:16.096Z,9.75
2022-11-17T16:06:45.353Z,8.88
2022-11-17T16:09:13.050Z,11.75
2022-11-17T16:11:40.789Z,10.48
2022-11-17T16:14:07.735Z,11.85
2022-11-17T16:16:37.445Z,17.33
2022-11-17T16:19:05.568Z,10.00
2022-11-17T16:21:32.909Z,10.57
2022-11-17T16:24:03.441Z,9.70
2022-11-17T16:26:31.352Z,11.95
2022-11-17T16:29:06.778Z,11.43
2022-11-17T16:31:35.999Z,11.90
2022-11-17T16:34:21.946Z,21.63
2022-11-17T16:36:49.388Z,13.57
2022-11-17T16:39:17.657Z,14.02
2022-11-17T16:41:45.721Z,9.48
2022-11-17T16:44:15.302Z,10.52
2022-11-17T16:46:44.621Z,10.45
2022-11-17T16:49:14.533Z,15.25
2022-11-17T16:51:47.880Z,12.30
2022-11-17T16:54:14.835Z,13.07
2022-11-17T16:56:42.041Z,15.25
2022-11-17T16:59:11.013Z,12.60
2022-11-17T17:01:38.683Z,18.38
2022-11-17T17:04:08.159Z,11.70
2022-11-17T17:06:37.511Z,10.60
2022-11-17T17:09:06.619Z,11.27
2022-11-17T17:11:35.713Z,12.20
2022-11-17T17:14:05.406Z,9.95
2022-11-17T17:16:35.648Z,10.25
2022-11-17T17:19:04.533Z,9.38
2022-11-17T17:21:32.897Z,9.27
2022-11-17T17:24:00.092Z,8.57
2022-11-17T17:26:29.327Z,7.70
2022-11-17T17:28:58.478Z,8.55
2022-11-17T17:31:29.433Z,9.20
2022-11-17T17:33:56.355Z,7.80
2022-11-17T17:36:25.561Z,12.48
2022-11-17T17:38:56.367Z,10.85
2022-11-17T17:41:26.442Z,8.57
2022-11-17T17:44:01.917Z,10.75
2022-11-17T17:46:30.811Z,13.32
2022-11-17T17:48:58.318Z,10.52
2022-11-17T17:51:27.842Z,9.25
2022-11-17T17:53:57.977Z,8.77
2022-11-17T17:56:25.663Z,10.07
2022-11-17T17:58:55.377Z,11.20
2022-11-17T18:01:28.043Z,10.50
2022-11-17T18:04:01.248Z,12.45
2022-11-17T18:06:28.796Z,11.30
2022-11-17T18:08:57.010Z,10.35
2022-11-17T18:11:24.530Z,11.02
2022-11-17T18:13:52.613Z,13.40
2022-11-17T18:16:25.264Z,15.82
2022-11-17T18:18:57.521Z,13.17
2022-11-17T18:21:25.195Z,11.40
2022-11-17T18:23:53.590Z,9.95
2022-11-17T18:26:29.681Z,10.35
2022-11-17T18:28:59.140Z,10.73
2022-11-17T18:31:28.875Z,12.55
2022-11-17T18:33:58.679Z,13.52
2022-11-17T18:36:27.046Z,12.82
2022-11-17T18:38:54.457Z,13.00
2022-11-17T18:41:22.119Z,10.43
2022-11-17T18:43:49.147Z,13.38
2022-11-17T18:46:19.495Z,11.98
2022-11-17T18:48:47.979Z,13.90
2022-11-17T18:51:20.028Z,12.25
2022-11-17T18:53:51.761Z,12.20
2022-11-17T18:56:21.335Z,13.30
2022-11-17T18:58:48.655Z,14.27
2022-11-17T19:01:23.930Z,15.15
2022-11-17T19:03:53.549Z,12.90
2022-11-17T19:06:23.229Z,13.88
2022-11-17T19:08:50.987Z,13.68
2022-11-17T19:11:20.054Z,13.25
2022-11-17T19:13:47.564Z,15.43
2022-11-17T19:16:20.564Z,14.90
2022-11-17T19:18:49.229Z,14.60
2022-11-17T19:21:18.926Z,14.18
2022-11-17T19:23:51.429Z,16.98
2022-11-17T19:26:21.754Z,17.48
2022-11-17T19:28:48.730Z,17.92
2022-11-17T19:31:18.955Z,16.92
2022-11-17T19:33:47.349Z,14.68
2022-11-17T19:36:20.316Z,16.00
2022-11-17T19:38:55.238Z,16.65
2022-11-17T19:41:27.068Z,14.35
2022-11-17T19:43:58.903Z,13.68
2022-11-17T19:46:27.853Z,15.43
2022-11-17T19:48:58.674Z,14.43
2022-11-17T19:51:27.378Z,14.25
2022-11-17T19:53:57.047Z,13.63
2022-11-17T19:56:25.716Z,14.52
2022-11-17T19:58:53.841Z,14.35
2022-11-17T20:01:29.849Z,13.85
2022-11-17T20:04:00.160Z,14.77
2022-11-17T20:06:31.927Z,16.30
2022-11-17T20:08:58.807Z,16.10
2022-11-17T20:11:28.433Z,17.70
2022-11-17T20:13:56.066Z,14.77
2022-11-17T20:16:26.164Z,14.70
2022-11-17T20:19:01.411Z,14.65
2022-11-17T20:21:29.812Z,14.85
2022-11-17T20:23:59.231Z,15.15
2022-11-17T20:26:28.922Z,15.73
2022-11-17T20:28:57.306Z,16.10
2022-11-17T20:31:27.031Z,15.18
2022-11-17T20:34:00.338Z,14.85
2022-11-17T20:36:29.265Z,15.65
2022-11-17T20:38:58.118Z,15.82
2022-11-17T20:41:25.873Z,15.27
2022-11-17T20:43:57.517Z,13.70
2022-11-17T20:46:25.265Z,15.35
2022-11-17T20:48:52.561Z,13.52
2022-11-17T20:51:21.680Z,14.05
2022-11-17T20:53:48.700Z,13.38
2022-11-17T20:56:16.639Z,12.73
2022-11-17T20:58:43.824Z,12.40
2022-11-17T21:01:15.361Z,13.68
2022-11-17T21:03:42.909Z,12.95
2022-11-17T21:06:10.380Z,13.30
2022-11-17T21:08:39.729Z,14.63
2022-11-17T21:11:10.051Z,14.35
2022-11-17T21:13:37.549Z,14.85
2022-11-17T21:16:13.477Z,14.52
2022-11-17T21:18:46.363Z,13.57
2022-11-17T21:21:13.939Z,13.98
2022-11-17T21:23:41.710Z,13.68
2022-11-17T21:26:11.800Z,14.63
2022-11-17T21:28:39.379Z,14.77
2022-11-17T21:31:09.714Z,13.07
2022-11-17T21:33:37.231Z,14.93
2022-11-17T21:36:06.241Z,14.45
2022-11-17T21:38:33.223Z,15.60
2022-11-17T21:41:04.179Z,14.40
2022-11-17T21:43:31.512Z,15.13
2022-11-17T21:46:07.453Z,15.65
2022-11-17T21:48:35.375Z,15.63
2022-11-17T21:51:03.493Z,13.45
2022-11-17T21:53:30.404Z,12.52
2022-11-17T21:56:01.685Z,15.57
2022-11-17T21:58:28.689Z,14.75
2022-11-17T22:00:56.274Z,13.55
2022-11-17T22:03:24.337Z,16.70
2022-11-17T22:05:52.349Z,13.98
2022-11-17T22:08:19.477Z,14.38
2022-11-17T22:10:46.863Z,15.48
2022-11-17T22:13:13.805Z,16.15
2022-11-17T22:15:41.155Z,15.10
2022-11-17T22:18:08.030Z,13.73
2022-11-17T22:20:35.220Z,15.18
2022-11-17T22:23:02.362Z,12.85
2022-11-17T22:25:44.600Z,14.52
2022-11-17T22:28:12.302Z,10.65
2022-11-17T22:30:39.547Z,14.23
2022-11-17T22:33:06.398Z,14.32
2022-11-17T22:35:33.563Z,13.50
2022-11-17T22:38:00.417Z,13.57
2022-11-17T22:40:27.648Z,13.55
2022-11-17T22:42:54.507Z,12.85
2022-11-17T22:45:22.105Z,12.25
2022-11-17T22:47:49.002Z,13.18
2022-11-17T22:50:16.511Z,12.77
2022-11-17T22:52:43.392Z,11.77
2022-11-17T22:55:10.678Z,13.73
2022-11-17T22:57:37.500Z,13.70
2022-11-17T23:00:06.066Z,13.00
2022-11-17T23:02:32.968Z,13.13
2022-11-17T23:05:00.124Z,12.40
2022-11-17T23:07:27.040Z,12.30
2022-11-17T23:09:54.213Z,13.43
2022-11-17T23:12:21.106Z,11.38
2022-11-17T23:14:48.250Z,12.10
2022-11-17T23:17:15.183Z,11.15
2022-11-17T23:19:42.300Z,12.05
2022-11-17T23:22:09.162Z,13.02
2022-11-17T23:24:36.269Z,11.02
2022-11-17T23:27:03.765Z,12.93
2022-11-17T23:29:31.010Z,11.45
2022-11-17T23:31:57.980Z,12.05
2022-11-17T23:34:25.398Z,12.63
2022-11-17T23:36:52.294Z,11.70
2022-11-17T23:39:19.545Z,11.88
2022-11-17T23:41:46.919Z,12.40
2022-11-17T23:44:14.223Z,11.90
2022-11-17T23:46:41.700Z,13.65
2022-11-17T23:49:08.874Z,12.07
2022-11-17T23:51:36.393Z,12.85
2022-11-17T23:54:03.893Z,12.40
2022-11-17T23:56:34.673Z,12.80
2022-11-17T23:59:01.904Z,11.13
